ENSH/SVJ METAR and TAF weather

Enter ICAO airport designator
Station Type Date Time Source
ENSH METAR 2020/09/22 20:20 UTC NOAA

ENSH 222020Z 35003KT 300V030 9999 FEW034 06/01 Q0998 RMK WIND 150FT 34003KT 300V020


Station Type Date Time Source
ENSH Decoded METAR 2020/09/22 20:20 UTC NOAA

Svolvaer / Helle, Norway (ENSH) 68-15N 014-40E 9M
Sep 22, 2020 - 04:20 PM EDT / 2020.09.22 2020 UTC
Wind: from the N (350 degrees) at 3 MPH (3 KT) (direction variable):0
Visibility: greater than 7 mile(s):0
Sky conditions: mostly clear
Temperature: 42 F (6 C)
Dew Point: 33 F (1 C)
Relative Humidity: 70%
Pressure (altimeter): 29.47 in. Hg (0998 hPa)
ob: ENSH 222020Z 35003KT 300V030 9999 FEW034 06/01 Q0998 RMK WIND 150FT 34003KT 300V020
cycle: 20

Station Type Date Time Source
ENSH TAF UTC NOAA

Error!

Example: see airport list